createdAt,value
2022-08-07T00:01:44.664Z,6.57
2022-08-07T00:04:00.365Z,4.93
2022-08-07T00:06:33.487Z,3.20
2022-08-07T00:09:16.386Z,4.15
2022-08-07T00:11:54.491Z,5.38
2022-08-07T00:14:25.423Z,3.15
2022-08-07T00:16:52.392Z,3.25
2022-08-07T00:19:21.615Z,7.68
2022-08-07T00:21:57.224Z,4.32
2022-08-07T00:24:28.841Z,5.90
2022-08-07T00:27:06.247Z,5.45
2022-08-07T00:29:33.357Z,4.05
2022-08-07T00:32:03.706Z,4.55
2022-08-07T00:34:32.624Z,3.72
2022-08-07T00:37:01.993Z,3.47
2022-08-07T00:39:28.710Z,4.35
2022-08-07T00:42:02.008Z,5.25
2022-08-07T00:44:33.337Z,5.03
2022-08-07T00:47:03.637Z,5.07
2022-08-07T00:50:21.487Z,5.53
2022-08-07T00:52:20.071Z,4.25
2022-08-07T00:54:47.074Z,5.35
2022-08-07T00:57:22.373Z,6.55
2022-08-07T00:59:49.241Z,3.70
2022-08-07T01:02:29.185Z,5.00
2022-08-07T01:04:58.631Z,5.70
2022-08-07T01:07:27.623Z,5.45
2022-08-07T01:10:05.692Z,5.55
2022-08-07T01:12:36.490Z,5.97
2022-08-07T01:15:04.626Z,4.22
2022-08-07T01:17:33.091Z,4.75
2022-08-07T01:20:09.268Z,4.85
2022-08-07T01:22:54.047Z,4.10
2022-08-07T01:25:53.807Z,7.85
2022-08-07T01:28:14.393Z,5.30
2022-08-07T01:30:42.141Z,6.10
2022-08-07T01:33:08.760Z,5.18
2022-08-07T01:35:53.709Z,4.55
2022-08-07T01:38:25.249Z,5.22
2022-08-07T01:40:55.883Z,4.20
2022-08-07T01:43:23.127Z,5.03
2022-08-07T01:45:54.544Z,6.72
2022-08-07T01:48:30.177Z,6.22
2022-08-07T01:51:24.273Z,4.68
2022-08-07T01:54:12.172Z,5.95
2022-08-07T01:56:58.620Z,5.03
2022-08-07T01:59:36.687Z,7.40
2022-08-07T02:02:13.096Z,4.30
2022-08-07T02:05:04.847Z,5.00
2022-08-07T02:07:44.794Z,4.70
2022-08-07T02:10:19.160Z,6.28
2022-08-07T02:12:49.221Z,4.85
2022-08-07T02:15:23.326Z,6.47
2022-08-07T02:17:53.683Z,3.97
2022-08-07T02:20:23.905Z,6.68
2022-08-07T02:22:57.520Z,4.53
2022-08-07T02:26:10.505Z,5.97
2022-08-07T02:28:25.353Z,7.07
2022-08-07T02:30:53.971Z,5.38
2022-08-07T02:33:20.813Z,4.45
2022-08-07T02:36:29.121Z,4.72
2022-08-07T02:38:39.272Z,9.07
2022-08-07T02:41:21.476Z,5.43
2022-08-07T02:43:49.178Z,7.80
2022-08-07T02:46:16.620Z,4.25
2022-08-07T02:48:54.754Z,6.03
2022-08-07T02:51:41.825Z,6.47
2022-08-07T02:54:10.056Z,6.07
2022-08-07T02:56:40.192Z,4.55
2022-08-07T02:59:10.779Z,5.20
2022-08-07T03:01:40.062Z,5.07
2022-08-07T03:04:12.428Z,5.28
2022-08-07T03:06:41.240Z,5.07
2022-08-07T03:09:11.105Z,5.57
2022-08-07T03:11:52.468Z,6.15
2022-08-07T03:14:25.315Z,5.50
2022-08-07T03:16:52.376Z,4.50
2022-08-07T03:19:19.596Z,8.18
2022-08-07T03:21:50.920Z,5.10
2022-08-07T03:24:27.063Z,5.93
2022-08-07T03:26:58.923Z,5.60
2022-08-07T03:29:29.673Z,4.45
2022-08-07T03:31:56.547Z,7.78
2022-08-07T03:34:27.169Z,6.00
2022-08-07T03:36:54.959Z,8.95
2022-08-07T03:39:42.171Z,8.35
2022-08-07T03:42:12.352Z,7.28
2022-08-07T03:44:39.011Z,6.22
2022-08-07T03:47:11.454Z,7.03
2022-08-07T03:50:08.146Z,7.07
2022-08-07T03:52:57.253Z,7.60
2022-08-07T03:55:23.763Z,6.53
2022-08-07T03:59:06.670Z,6.10
2022-08-07T04:01:00.334Z,5.57
2022-08-07T04:03:26.938Z,5.13
2022-08-07T04:05:53.531Z,7.60
2022-08-07T04:08:26.102Z,4.03
2022-08-07T04:12:24.667Z,4.82
2022-08-07T04:14:10.138Z,5.50
2022-08-07T04:16:30.870Z,7.18
2022-08-07T04:19:01.533Z,4.43
2022-08-07T04:21:33.380Z,6.35
2022-08-07T04:24:06.022Z,9.52
2022-08-07T04:26:34.158Z,4.90
2022-08-07T04:29:00.746Z,5.88
2022-08-07T04:31:38.735Z,6.30
2022-08-07T04:34:17.346Z,5.43
2022-08-07T04:36:54.021Z,5.07
2022-08-07T04:39:25.760Z,5.20
2022-08-07T04:41:52.580Z,5.28
2022-08-07T04:44:19.307Z,7.70
2022-08-07T04:46:59.639Z,8.70
2022-08-07T04:50:03.684Z,5.88
2022-08-07T04:52:51.415Z,7.13
2022-08-07T04:58:24.305Z,5.65
2022-08-07T04:58:27.489Z,6.18
2022-08-07T05:01:13.596Z,5.03
2022-08-07T05:04:06.406Z,5.75
2022-08-07T05:06:51.776Z,5.47
2022-08-07T05:09:46.997Z,5.47
2022-08-07T05:12:27.044Z,5.32
2022-08-07T05:15:04.832Z,5.15
2022-08-07T05:17:50.860Z,5.97
2022-08-07T05:20:30.446Z,6.60
2022-08-07T05:25:26.268Z,8.93
2022-08-07T05:28:20.213Z,7.93
2022-08-07T05:30:49.783Z,6.22
2022-08-07T05:33:21.109Z,7.13
2022-08-07T05:35:49.791Z,5.90
2022-08-07T05:41:12.078Z,7.43
2022-08-07T05:43:50.022Z,6.93
2022-08-07T05:46:29.525Z,6.75
2022-08-07T05:48:58.162Z,6.05
2022-08-07T05:51:25.839Z,5.78
2022-08-07T05:54:13.413Z,6.22
2022-08-07T05:56:44.703Z,5.55
2022-08-07T05:59:15.586Z,7.85
2022-08-07T06:01:43.120Z,8.18
2022-08-07T06:04:11.747Z,6.95
2022-08-07T06:06:46.153Z,5.53
2022-08-07T06:09:15.428Z,5.78
2022-08-07T06:11:42.257Z,5.63
2022-08-07T06:14:12.148Z,5.47
2022-08-07T06:16:40.754Z,5.57
2022-08-07T06:19:08.543Z,6.85
2022-08-07T06:22:16.133Z,8.27
2022-08-07T06:24:37.615Z,7.55
2022-08-07T06:28:00.007Z,7.97
2022-08-07T06:30:36.073Z,9.82
2022-08-07T06:32:57.804Z,5.38
2022-08-07T06:35:24.365Z,6.90
2022-08-07T06:38:06.293Z,7.57
2022-08-07T06:40:50.472Z,6.68
2022-08-07T06:43:21.621Z,8.32
2022-08-07T06:45:49.549Z,7.78
2022-08-07T06:48:16.336Z,6.20
2022-08-07T06:50:53.250Z,7.57
2022-08-07T06:54:11.703Z,6.60
2022-08-07T06:56:15.506Z,8.23
2022-08-07T07:00:13.438Z,6.22
2022-08-07T07:01:33.282Z,6.37
2022-08-07T07:04:28.122Z,8.65
2022-08-07T07:07:01.203Z,5.70
2022-08-07T07:09:31.370Z,6.53
2022-08-07T07:12:19.712Z,7.47
2022-08-07T07:15:08.631Z,6.47
2022-08-07T07:17:50.664Z,5.43
2022-08-07T07:20:22.369Z,5.57
2022-08-07T07:24:08.776Z,6.75
2022-08-07T07:26:34.001Z,5.70
2022-08-07T07:31:25.544Z,6.70
2022-08-07T07:33:59.644Z,5.07
2022-08-07T07:36:32.492Z,5.78
2022-08-07T07:39:00.900Z,4.30
2022-08-07T07:41:31.037Z,5.07
2022-08-07T07:44:21.655Z,4.85
2022-08-07T07:47:02.253Z,7.65
2022-08-07T07:50:34.816Z,5.00
2022-08-07T07:52:28.515Z,7.53
2022-08-07T07:54:55.929Z,4.53
2022-08-07T07:57:44.041Z,5.30
2022-08-07T08:00:20.921Z,4.05
2022-08-07T08:03:05.898Z,5.45
2022-08-07T08:05:51.063Z,6.68
2022-08-07T08:08:34.309Z,7.72
2022-08-07T08:11:03.757Z,4.35
2022-08-07T08:13:36.724Z,6.38
2022-08-07T08:16:24.873Z,4.38
2022-08-07T08:18:55.079Z,4.38
2022-08-07T08:21:55.950Z,3.88
2022-08-07T08:24:47.902Z,4.93
2022-08-07T08:27:33.428Z,3.25
2022-08-07T08:30:08.958Z,3.67
2022-08-07T08:32:49.072Z,3.03
2022-08-07T08:35:21.563Z,4.22
2022-08-07T08:38:00.882Z,4.20
2022-08-07T08:40:36.501Z,3.22
2022-08-07T08:43:16.190Z,4.18
2022-08-07T08:45:59.372Z,2.97
2022-08-07T08:48:45.824Z,4.15
2022-08-07T08:51:49.825Z,1.42
2022-08-07T08:54:40.238Z,3.45
2022-08-07T08:57:14.320Z,3.63
2022-08-07T09:00:00.149Z,1.85
2022-08-07T09:02:37.815Z,6.55
2022-08-07T09:05:36.951Z,1.92
2022-08-07T09:08:39.187Z,1.10
2022-08-07T09:11:24.390Z,1.52
2022-08-07T09:14:13.483Z,1.70
2022-08-07T09:17:11.722Z,3.22
2022-08-07T09:19:56.609Z,1.85
2022-08-07T09:24:33.365Z,1.15
2022-08-07T09:25:28.006Z,1.63
2022-08-07T09:28:03.936Z,1.83
2022-08-07T09:30:54.814Z,1.48
2022-08-07T09:33:56.997Z,1.20
2022-08-07T09:36:42.980Z,3.85
2022-08-07T09:39:54.353Z,1.35
2022-08-07T09:42:45.624Z,2.03
2022-08-07T09:47:23.554Z,1.67
2022-08-07T09:48:43.948Z,0.70
2022-08-07T09:52:15.822Z,1.52
2022-08-07T09:54:58.110Z,1.60
2022-08-07T09:57:29.890Z,1.75
2022-08-07T10:00:09.349Z,1.90
2022-08-07T10:04:02.900Z,1.23
2022-08-07T10:06:17.255Z,4.07
2022-08-07T10:08:56.337Z,1.75
2022-08-07T10:12:01.861Z,3.72
2022-08-07T10:15:03.115Z,0.98
2022-08-07T10:18:00.857Z,0.95
2022-08-07T10:20:39.350Z,1.45
2022-08-07T10:23:12.593Z,0.70
2022-08-07T10:26:02.282Z,2.60
2022-08-07T10:28:35.411Z,2.83
2022-08-07T10:31:31.495Z,1.77
2022-08-07T10:34:17.837Z,1.02
2022-08-07T10:36:59.755Z,3.90
2022-08-07T10:40:03.239Z,2.10
2022-08-07T10:43:10.029Z,3.08
2022-08-07T10:45:57.577Z,0.95
2022-08-07T10:48:44.317Z,3.92
2022-08-07T10:51:57.169Z,1.60
2022-08-07T10:54:17.394Z,1.73
2022-08-07T10:57:03.055Z,1.55
2022-08-07T10:59:53.162Z,1.25
2022-08-07T11:02:41.414Z,4.82
2022-08-07T11:05:35.691Z,2.55
2022-08-07T11:08:34.487Z,3.70
2022-08-07T11:11:09.636Z,2.90
2022-08-07T11:14:45.852Z,1.58
2022-08-07T11:16:39.331Z,2.47
2022-08-07T11:19:11.924Z,2.78
2022-08-07T11:21:45.109Z,3.20
2022-08-07T11:24:22.272Z,1.40
2022-08-07T11:27:06.505Z,3.10
2022-08-07T11:30:18.077Z,2.17
2022-08-07T11:33:19.482Z,1.15
2022-08-07T11:36:25.441Z,2.35
2022-08-07T11:39:19.713Z,1.08
2022-08-07T11:42:00.323Z,0.73
2022-08-07T11:44:52.283Z,0.88
2022-08-07T11:47:56.587Z,1.42
2022-08-07T11:50:57.443Z,1.80
2022-08-07T11:54:01.786Z,1.55
2022-08-07T11:57:01.625Z,5.32
2022-08-07T12:00:12.269Z,0.85
2022-08-07T12:02:52.744Z,1.60
2022-08-07T12:05:47.149Z,2.55
2022-08-07T12:08:38.403Z,1.15
2022-08-07T12:11:21.562Z,1.20
2022-08-07T12:14:08.416Z,1.52
2022-08-07T12:16:41.947Z,1.63
2022-08-07T12:19:35.320Z,2.17
2022-08-07T12:22:39.215Z,1.08
2022-08-07T12:26:05.495Z,1.10
2022-08-07T12:28:55.986Z,1.58
2022-08-07T12:32:01.972Z,1.38
2022-08-07T12:34:36.365Z,3.05
2022-08-07T12:37:08.768Z,1.15
2022-08-07T12:39:51.083Z,1.10
2022-08-07T12:42:27.511Z,2.38
2022-08-07T12:44:56.847Z,2.50
2022-08-07T12:47:37.349Z,2.47
2022-08-07T12:50:34.017Z,3.70
2022-08-07T12:53:17.671Z,1.60
2022-08-07T12:56:10.150Z,1.92
2022-08-07T12:58:39.909Z,1.65
2022-08-07T13:01:18.423Z,1.27
2022-08-07T13:04:04.546Z,2.03
2022-08-07T13:07:03.274Z,0.93
2022-08-07T13:10:37.161Z,1.30
2022-08-07T13:13:02.636Z,0.82
2022-08-07T13:15:58.773Z,2.28
2022-08-07T13:18:39.819Z,1.02
2022-08-07T13:21:35.066Z,1.98
2022-08-07T13:24:16.335Z,1.15
2022-08-07T13:27:20.482Z,3.33
2022-08-07T13:29:58.161Z,2.38
2022-08-07T13:32:53.701Z,2.60
2022-08-07T13:36:00.733Z,0.93
2022-08-07T13:38:33.340Z,2.15
2022-08-07T13:41:27.983Z,1.95
2022-08-07T13:43:57.147Z,1.83
2022-08-07T13:46:33.053Z,1.50
2022-08-07T13:49:02.031Z,1.95
2022-08-07T13:52:22.370Z,0.70
2022-08-07T13:54:23.509Z,1.65
2022-08-07T13:56:55.868Z,2.47
2022-08-07T13:59:32.042Z,1.85
2022-08-07T14:02:10.450Z,1.52
2022-08-07T14:04:47.467Z,1.38
2022-08-07T14:07:18.898Z,2.15
2022-08-07T14:10:17.347Z,1.38
2022-08-07T14:12:49.313Z,3.40
2022-08-07T14:15:34.828Z,2.63
2022-08-07T14:18:24.214Z,0.82
2022-08-07T14:21:07.951Z,0.93
2022-08-07T14:24:00.316Z,1.90
2022-08-07T14:26:30.613Z,1.60
2022-08-07T14:29:08.466Z,1.90
2022-08-07T14:31:42.486Z,1.42
2022-08-07T14:34:12.079Z,2.63
2022-08-07T14:36:56.069Z,0.83
2022-08-07T14:40:15.608Z,1.80
2022-08-07T14:42:18.744Z,2.70
2022-08-07T14:47:19.251Z,1.13
2022-08-07T14:49:58.153Z,1.55
2022-08-07T14:52:28.848Z,1.23
2022-08-07T14:54:58.500Z,1.20
2022-08-07T14:57:28.968Z,5.55
2022-08-07T15:00:20.777Z,2.17
2022-08-07T15:02:59.000Z,1.42
2022-08-07T15:05:27.453Z,4.18
2022-08-07T15:07:58.386Z,3.25
2022-08-07T15:10:29.825Z,1.17
2022-08-07T15:13:01.198Z,3.65
2022-08-07T15:15:40.793Z,0.93
2022-08-07T15:18:28.844Z,0.77
2022-08-07T15:21:08.235Z,2.45
2022-08-07T15:25:15.650Z,3.50
2022-08-07T15:26:51.912Z,2.58
2022-08-07T15:30:06.419Z,0.95
2022-08-07T15:32:12.545Z,2.25
2022-08-07T15:35:06.591Z,2.03
2022-08-07T15:38:04.730Z,2.50
2022-08-07T15:43:53.572Z,3.13
2022-08-07T15:49:14.530Z,4.20
2022-08-07T15:54:33.857Z,3.17
2022-08-07T15:57:02.993Z,2.78
2022-08-07T15:59:39.557Z,2.33
2022-08-07T16:02:15.361Z,2.05
2022-08-07T16:04:42.706Z,1.88
2022-08-07T16:08:28.921Z,2.53
2022-08-07T16:10:21.181Z,3.10
2022-08-07T16:13:18.108Z,2.13
2022-08-07T16:16:43.780Z,1.90
2022-08-07T16:19:11.793Z,3.95
2022-08-07T16:22:03.545Z,1.88
2022-08-07T16:24:52.718Z,5.10
2022-08-07T16:27:40.337Z,4.72
2022-08-07T16:30:30.599Z,1.92
2022-08-07T16:34:02.282Z,1.63
2022-08-07T16:36:20.666Z,2.45
2022-08-07T16:39:16.783Z,2.00
2022-08-07T16:42:23.829Z,7.90
2022-08-07T16:45:15.577Z,3.50
2022-08-07T16:48:13.471Z,1.63
2022-08-07T16:51:20.921Z,6.88
2022-08-07T16:54:02.198Z,3.88
2022-08-07T16:56:53.561Z,1.33
2022-08-07T16:59:46.575Z,4.20
2022-08-07T17:02:52.186Z,3.60
2022-08-07T17:06:28.829Z,3.50
2022-08-07T17:09:09.880Z,2.53
2022-08-07T17:12:04.456Z,2.65
2022-08-07T17:14:36.544Z,4.43
2022-08-07T17:17:09.789Z,8.32
2022-08-07T17:20:02.397Z,4.65
2022-08-07T17:22:48.549Z,1.85
2022-08-07T17:25:19.489Z,2.10
2022-08-07T17:28:06.563Z,1.40
2022-08-07T17:30:58.061Z,2.75
2022-08-07T17:34:09.396Z,1.88
2022-08-07T17:36:20.511Z,3.20
2022-08-07T17:38:54.583Z,2.92
2022-08-07T17:42:04.682Z,4.45
2022-08-07T17:44:50.167Z,3.80
2022-08-07T17:47:54.098Z,3.80
2022-08-07T17:50:30.566Z,3.83
2022-08-07T17:53:01.003Z,2.60
2022-08-07T17:56:01.093Z,5.22
2022-08-07T17:58:57.416Z,10.82
2022-08-07T18:01:58.075Z,3.95
2022-08-07T18:04:35.119Z,2.38
2022-08-07T18:07:20.480Z,3.83
2022-08-07T18:10:07.516Z,2.30
2022-08-07T18:12:55.479Z,6.90
2022-08-07T18:15:32.592Z,3.88
2022-08-07T18:18:46.718Z,3.28
2022-08-07T18:21:38.248Z,7.25
2022-08-07T18:24:07.065Z,4.07
2022-08-07T18:26:48.698Z,2.05
2022-08-07T18:30:04.692Z,2.58
2022-08-07T18:32:20.041Z,4.07
2022-08-07T18:35:10.454Z,2.38
2022-08-07T18:38:57.834Z,5.45
2022-08-07T18:40:59.801Z,3.20
2022-08-07T18:43:49.703Z,3.10
2022-08-07T18:46:25.948Z,6.50
2022-08-07T18:50:31.383Z,4.25
2022-08-07T18:52:53.064Z,4.72
2022-08-07T18:55:43.284Z,3.60
2022-08-07T18:59:01.104Z,3.33
2022-08-07T19:02:32.545Z,2.75
2022-08-07T19:04:54.812Z,2.85
2022-08-07T19:08:05.689Z,9.05
2022-08-07T19:10:49.500Z,3.90
2022-08-07T19:13:21.999Z,2.40
2022-08-07T19:17:00.832Z,3.97
2022-08-07T19:19:28.036Z,3.83
2022-08-07T19:22:05.184Z,5.33
2022-08-07T19:24:50.103Z,5.85
2022-08-07T19:28:57.422Z,6.75
2022-08-07T19:31:03.118Z,2.53
2022-08-07T19:33:10.369Z,4.00
2022-08-07T19:35:43.924Z,8.38
2022-08-07T19:38:15.921Z,11.27
2022-08-07T19:40:47.475Z,3.80
2022-08-07T19:43:45.047Z,3.03
2022-08-07T19:46:11.782Z,3.10
2022-08-07T19:48:42.271Z,4.25
2022-08-07T19:51:19.192Z,4.78
2022-08-07T19:54:33.901Z,3.28
2022-08-07T19:58:00.427Z,4.95
2022-08-07T19:59:41.093Z,3.75
2022-08-07T20:02:15.486Z,4.82
2022-08-07T20:07:23.726Z,3.50
2022-08-07T20:10:37.234Z,5.07
2022-08-07T20:12:53.070Z,4.05
2022-08-07T20:15:33.025Z,3.42
2022-08-07T20:18:06.203Z,3.53
2022-08-07T20:20:41.791Z,4.55
2022-08-07T20:23:22.784Z,5.38
2022-08-07T20:26:04.471Z,4.25
2022-08-07T20:28:39.125Z,5.00
2022-08-07T20:31:21.263Z,2.53
2022-08-07T20:33:57.498Z,4.80
2022-08-07T20:36:26.191Z,6.53
2022-08-07T20:39:00.471Z,3.53
2022-08-07T20:41:47.305Z,4.15
2022-08-07T20:44:15.493Z,5.22
2022-08-07T20:46:45.475Z,3.60
2022-08-07T20:50:01.251Z,3.33
2022-08-07T20:52:14.051Z,7.20
2022-08-07T20:54:53.415Z,3.03
2022-08-07T20:57:28.807Z,4.75
2022-08-07T21:00:07.937Z,4.47
2022-08-07T21:02:58.522Z,3.40
2022-08-07T21:05:54.529Z,6.80
2022-08-07T21:08:28.754Z,5.90
2022-08-07T21:11:10.738Z,3.03
2022-08-07T21:13:57.595Z,2.63
2022-08-07T21:16:29.181Z,3.13
2022-08-07T21:18:57.672Z,2.30
2022-08-07T21:21:27.209Z,3.95
2022-08-07T21:24:20.210Z,2.70
2022-08-07T21:27:00.136Z,3.60
2022-08-07T21:29:37.409Z,5.32
2022-08-07T21:32:48.403Z,2.58
2022-08-07T21:35:02.646Z,2.95
2022-08-07T21:37:58.039Z,2.53
2022-08-07T21:40:44.005Z,3.08
2022-08-07T21:43:17.826Z,4.32
2022-08-07T21:46:08.814Z,2.53
2022-08-07T21:48:58.699Z,4.20
2022-08-07T21:51:28.164Z,3.13
2022-08-07T21:54:05.367Z,5.55
2022-08-07T21:56:49.142Z,1.95
2022-08-07T22:00:04.546Z,3.47
2022-08-07T22:02:55.093Z,2.60
2022-08-07T22:05:45.895Z,2.75
2022-08-07T22:08:12.338Z,2.42
2022-08-07T22:10:42.355Z,4.47
2022-08-07T22:13:13.798Z,3.15
2022-08-07T22:16:35.807Z,3.70
2022-08-07T22:18:59.330Z,4.43
2022-08-07T22:22:05.198Z,2.90
2022-08-07T22:24:54.637Z,6.40
2022-08-07T22:28:08.104Z,8.52
2022-08-07T22:30:26.574Z,3.42
2022-08-07T22:33:03.659Z,4.93
2022-08-07T22:35:58.373Z,3.58
2022-08-07T22:38:47.870Z,3.88
2022-08-07T22:41:19.942Z,3.60
2022-08-07T22:43:56.358Z,2.97
2022-08-07T22:47:06.142Z,5.20
2022-08-07T22:49:54.957Z,5.32
2022-08-07T22:52:37.544Z,3.45
2022-08-07T22:55:30.053Z,3.50
2022-08-07T22:58:28.192Z,5.45
2022-08-07T23:01:10.753Z,6.60
2022-08-07T23:03:58.045Z,3.77
2022-08-07T23:06:44.077Z,3.65
2022-08-07T23:10:04.904Z,4.38
2022-08-07T23:12:21.071Z,3.55
2022-08-07T23:16:07.028Z,4.28
2022-08-07T23:19:11.391Z,3.80
2022-08-07T23:22:08.622Z,6.32
2022-08-07T23:24:45.540Z,5.00
2022-08-07T23:28:20.538Z,5.55
2022-08-07T23:31:06.730Z,3.45
2022-08-07T23:34:22.602Z,5.80
2022-08-07T23:37:20.227Z,4.40
2022-08-07T23:40:14.936Z,4.88
2022-08-07T23:42:59.910Z,4.60
2022-08-07T23:46:02.213Z,3.78
2022-08-07T23:48:58.700Z,4.32
2022-08-07T23:52:58.386Z,2.88
2022-08-07T23:54:44.263Z,3.55
2022-08-07T23:57:24.310Z,3.10
